Hankamer, Texas
Current Conditions -  °F | °C
As of 8:35 AM on Sunday 23 Nov 2014 (Local Time) from KBMT Reporting Station
Broken Clouds Broken Clouds  
Wind Chill: 61°   Ceiling: 700
Heat Index: 61°   Visibility: 10mi
Dew Point: 60°   Wind: 10mph
Humidity: 94%   Direction: 240°WSW
Pressure: 29.66"   Gusts: 16mph
Location:  29.86°N, 94.63°W
Report Text: KBMT 231435Z AUTO 24009G14KT 10SM BKN007 16/15 A2966 RMK AO2 T01630154
Loading
Personal Weather Stations






























Interactive Weather Map New forecast layout! Learn more

10-Day Weather Forecast

Advertisements
Track Severe Weather on mobile